National Weather Service United States Department of Commerce

Severe Thunderstorms and Excessive Rain Possible From the Central and Southern Plains into the South and From the Ohio Valley To Mid-Atlantic; Heat and Critical Fire Weather Builds in the Southwest Quad of the Country

Multiple locations of severe thunderstorms and locally intense excessive rain will be possible east of the Rockies. The two main corridors appear to be the Central High Plains through Southern Plains into the South and the other path is from the Ohio Valley into Mid-Atlantic. Meanwhile, excessive heat and critical fire weather threats will build throughout the weekend in CA and the Southwest. Read More >

 

 

 

Daily Weather Briefing
Prepared: 6/23/18 7:08 AM by: RW valid for 12 hours
FOR ATC PLANNING PURPOSES
Isolated/scattered thunderstorms over AL/GA/SC will move east to northeast at 30kts and increase in coverage and intensity with afternoon heating over most of ZTL. Expect MVFR/VFR conditions outside of convection after IFR/LIFR conditions, mostly in GA/SC, improve by 15z. Surface winds will be west to southwest at 5-12kts with 15-20kt afternoon gusts. Flight Hazards outside convection: LGT-MOD Turbulence above FL260 in TN/VA/NC/N SC/GA/AL and below 110 in VA/NC/SC/E GA/TN. Altimeters will be at/above 29.92ins in S AL/GA and below 29.92ins over the rest of ZTL. CIGS/VIS at/below 050/5SM are expected in all ZTL Areas, improving in Areas 1/2/4 by 14z outside of convection. Restricted Area Convection: R2102...Thru PD. R3002...Aft 17z. R3004...Til 13z and Aft 18z.
FTUS80 KATL 231400 AAA
KATL 231357Z 2314/2418 24008KT P6SM VCSH SCT025 BKN060
     FM231600 26011KT P6SM VCSH BKN040
      TEMPO 2318/2322 VRB15G25KT 4SM TSRA OVC025CB
     FM240200 23005KT P6SM BKN120
     FM241400 28007KT P6SM SCT025

REMARKS: ISOLD TS PSBL W/SW/S/SE 11-17z and ALL QUADS AFT 17z. LIFR PSBL E/W TIL 13z.

 

 

FTUS80 KCLT 231548 AAA
KCLT 231545Z 2316/2418 23009KT P6SM BKN022
     FM231615 23009KT P6SM SCT025
     FM231800 24009G18KT P6SM SCT050
     FM240200 24004KT P6SM SCT250
     FM241600 25005KT P6SM FEW050 SCT250


REMARKS: IFR PSBL N/S TIL 11-13z. ISOLD TS PSBL SW/S/SE 11-14z.

 

 

Go to KATL TAF TDA
Go to KATL TAF TDA

 

 

Go to KCLT TAF TDA
Go to KCLT TAF TDA

ATL Convective GatesConvective Gate Forecast

CLT Convective Gates Convective Gate Forecast
Radar/PIREPs/Icing & Turbulence Airmets and Sigmets/CWAs
<PIREP TDA Weather Map